Tripoli, Lebanon

8:03 PM EEST on July 29, 2014 (GMT +0300)
Bsarma - By Tony Abdou (INORTHLE4) Elev 873 ft | 34.34 °N, 35.84 °E | Change Station

Current weather conditions updated 8 seconds ago

Scattered Clouds
Scattered Clouds
79.7 °F
Feels Like 84 °F
N
4.5
Wind Variable Wind from North
Gusts 4.5 mph

Tomorrow is forecast to be Cooler than today.

Today
High -- | Low -- °F
--% Chance of Precip.
Yesterday
High -- | Low -- °F
Precip. -- in
5:44 AM 7:41 PM
Waxing Crescent, 7% visible
Pressure 29.80 in
Visibility 5.0 miles
Clouds Scattered Clouds 2600 ft
Heat Index 84 °F
Dew Point 74 °F
Humidity 83%
Rainfall 0.00 in
Snow Depth Not available.
UV 0 out of 12
Pollen Not available.
Air Quality Not available.
Flu Activity Not available.
METAR OLBA 291600Z 22008KT 8000 SCT026 28/23 Q1009

More Conditions Fewer Conditions

Pressure 29.80 in
Visibility 5.0 miles
Clouds Scattered Clouds 2600 ft
Heat Index 84 °F
Dew Point 74 °F
Humidity 83%
Rainfall 0.00 in
Snow Depth Not available.
UV 0 out of 12
Pollen Not available.
Air Quality Not available.
Flu Activity Not available.
METAR OLBA 291600Z 22008KT 8000 SCT026 28/23 Q1009

More Conditions Fewer Conditions

10-Day Weather Forecast

Almanac

Astronomy

Jul. 29, 2014 Rise Set
Actual Time 5:44 AM EEST 7:41 PM EEST
Civil Twilight 5:17 AM EEST 8:08 PM EEST
Nautical Twilight 4:43 AM EEST 8:42 PM EEST
Astronomical Twilight 4:07 AM EEST 9:18 PM EEST
Moon 7:54 AM EEST 8:52 PM EEST
Length of Visible Light 14h 51m
Length of Day
13h 56m
Tomorrow will be 1m 31s shorter.
Waxing Crescent, 7% of the Moon is Illuminated
Today
Waxing Crescent
Aug 3
First Quarter
Aug 10
Full
Aug 17
Last Quarter
Aug 25
New

Today's Extremes

Country Highs Country Lows

Community

WunderPhotos

Upload Photos

1,738,786 photos uploaded!

Nearby

Snow Depth

Not available.

Earthquake Activity

City Distance Mag. Time & Date
No recent earthquake activity has been reported nearby.
Minimum magnitude displayed is 2.5.

Coastal Water Temperatures

Place Temperature
No Stations Reporting

Nearby Weather Stations

Station Location Temp. Heat Index Dew Point Humidity Wind Precip. Elev Updated Type
Bsarma - By Tony Abdou, Bsarma - el Koura 79.7 °F 84 °F 74 °F 83% North  at  4.5 mph 0.00 in / hr 873 ft 8:03 PM EEST Rapid Fire
Aarjess - 314 m by Joudy Matta, Aarjess 82.3 °F 88 °F 73 °F 74% NE  at  3.4 mph 0.00 in / hr 1027 ft 8:03 PM EEST Rapid Fire
PWS, Amioun, Lebanon, Amioun-Koura @324m 78.4 °F 81 °F 73 °F 83% North  at  2.0 mph 0.00 in / hr 1063 ft 7:57 PM EEST Normal
EHDEN, EHDEN 73.8 °F 77 °F 42 °F 32% NW  at  2.2 mph 0.00 in / hr 4685 ft 8:00 PM EEST Normal
Bkerkacha, Bcharre, Bcharre 70.7 °F 77 °F 54 °F 55% SE  at  2.0 mph 0.00 in / hr 4724 ft 7:54 PM EEST Normal

Show More Stations Show Fewer Stations